DAOB

Bou Chekif Airport

Tiaret, Algeria
METAR DAOB 211600Z 33008KT 8000 -RA SCT016 FEW026CB BKN030 05/04 Q1016
Observed Flight Rules
Jan-21 @ 16:00 UTC (45 minutes ago) Marginal Visual Flight Rules
Wind Visibility Clouds Conditions
330° at 8 knots 7,998 meters
  • Scattered at 1,600' AGL
  • Few at 2,600' AGL
  • Broken at 3,000' AGL
  • Light Rain
Temperatures Readings
Current 5°C / 41°F
Dewpoint 4°C / 39°F
Humidity 93%
Altimeter 30" Hg
Pressure 1015.92 hPa
Elevation 989
METAR DAOB 211600Z 33008KT 8000 -RA SCT016 FEW026CB BKN030 05/04 Q1016
Observed Flight Rules
Jan-21 @ 16:00 UTC
(45 minutes ago)
MVFR
Wind Visibility
330° at 8 knots 7,998 meters
Clouds
  • Scattered at 1,600' AGL
  • Few at 2,600' AGL
  • Broken at 3,000' AGL
Conditions
  • Light Rain
Temperature Dewpoint
5°C / 41°F 4°C / 39°F
Humidity Altimeter Pressure
93% 30" Hg 1015.92 hPa